If you wish to contribute or participate in the discussions about articles you are invited to join SKYbrary as a registered user

 Actions

RAF Northholt

From SKYbrary Wiki

EGWU
Airport
ICAO: EGWU – IATA: NHT
Summary
Name RAF Northholt
Region Europe
Territory United Kingdom GB.gif
Location Northolt, Middlesex, England
Serving Northolt
Elevation 37.795 m
124 ft
124 ft37.795 m
Coordinates 51° 33' 6.00" N, 0° 25' 6.00" W
Runways
Designator Length Width Surface ROPS
7/25 1690 m5,544.619 ft
46 m150.919 ft
ASP yes/yes


METAR
Observation EGWU 250250Z AUTO 14012KT 9999 // FEW034/// BKN044/// 10/08 Q0995
Station Northolt
Date/Time 25 April 2019 02:50:00
Wind direction 140°
Wind speed 12 kts
Lowest cloud amount few clouds
Temperature 10°C
Dew point 8°C
Humidity 87%
QNH 995 hPa
Weather condition n/a

RAF Northholt

ICAO: EGWU IATA: NHT

Description

RAF Northolt is a military airport available to non scheduled civil traffic by prior arrangement.

Climatology

Temperate Marine climate/Oceanic climate (Köppen climate classification Cfb). Moderately cool summer and comparatively warm winter with a temperature range of only 14°C57.2 °F
287.15 K
516.87 °R
. Prevailing south-westerly winds from the Atlantic Ocean.

Maps

Terrain

Loading map...

Airport Layout

Loading map...